createdAt,value
2022-08-03T00:01:29.059Z,83.2
2022-08-03T00:03:34.565Z,83.7
2022-08-03T00:05:32.140Z,83.9
2022-08-03T00:07:29.686Z,84.1
2022-08-03T00:09:27.288Z,84.3
2022-08-03T00:11:24.832Z,84.6
2022-08-03T00:13:22.396Z,84.8
2022-08-03T00:15:19.975Z,85
2022-08-03T00:17:25.479Z,85.6
2022-08-03T00:19:23.064Z,85.8
2022-08-03T00:21:20.625Z,86
2022-08-03T00:23:18.189Z,86.3
2022-08-03T00:25:15.763Z,86.5
2022-08-03T00:29:10.912Z,87.1
2022-08-03T00:31:16.452Z,87.6
2022-08-03T00:33:14.000Z,87.8
2022-08-03T00:35:18.063Z,88
2022-08-03T00:37:09.142Z,88.3
2022-08-03T00:41:04.309Z,88.7
2022-08-03T00:43:01.863Z,89
2022-08-03T00:45:07.420Z,89.7
2022-08-03T00:49:02.639Z,90.1
2022-08-03T00:51:29.458Z,90.3
2022-08-03T00:55:24.582Z,90.5
2022-08-03T00:59:27.677Z,90.8
2022-08-03T01:01:25.307Z,91
2022-08-03T01:03:22.828Z,91.2
2022-08-03T01:05:20.421Z,91.3
2022-08-03T01:07:18.004Z,91.5
2022-08-03T01:09:15.582Z,91.6
2022-08-03T01:11:21.057Z,92
2022-08-03T01:14:03.447Z,92.1
2022-08-03T01:19:11.371Z,92.5
2022-08-03T01:21:08.974Z,92.6
2022-08-03T01:23:06.546Z,92.8
2022-08-03T01:25:12.052Z,93.1
2022-08-03T01:27:09.646Z,93.2
2022-08-03T01:33:03.340Z,93.6
2022-08-03T01:34:59.962Z,93.8
2022-08-03T01:36:57.557Z,93.9
2022-08-03T01:39:03.132Z,94.3
2022-08-03T01:41:00.666Z,94.5
2022-08-03T01:42:58.264Z,94.7
2022-08-03T01:44:30.012Z,94.9
2022-08-03T01:45:58.626Z,95.1
2022-08-03T01:47:56.196Z,95.3
2022-08-03T01:52:04.074Z,95.9
2022-08-03T01:53:56.870Z,96
2022-08-03T01:55:54.499Z,96.1
2022-08-03T01:58:05.965Z,96.2
2022-08-03T01:59:49.691Z,96.4
2022-08-03T02:02:28.276Z,96.5
2022-08-03T02:04:00.020Z,96.6
2022-08-03T02:05:57.257Z,97
2022-08-03T02:07:47.955Z,97.1
2022-08-03T02:09:45.551Z,97.2
2022-08-03T02:11:43.132Z,97.3
2022-08-03T02:13:40.734Z,97.4
2022-08-03T02:15:38.304Z,97.5
2022-08-03T02:17:39.193Z,97.6
2022-08-03T02:21:57.272Z,98.1
2022-08-03T02:25:34.214Z,98.4
2022-08-03T02:27:31.801Z,98.6
2022-08-03T02:29:38.846Z,98.7
2022-08-03T02:31:26.987Z,98.9
2022-08-03T02:33:32.503Z,99.2
2022-08-03T02:35:30.129Z,99.3
2022-08-03T02:37:27.729Z,99.4
2022-08-03T02:38:30.486Z,99.5
2022-08-03T02:40:28.119Z,99.6
2022-08-03T02:44:23.293Z,99.7
2022-08-03T02:46:28.833Z,99.8
2022-08-03T02:48:26.429Z,99.9
2022-08-03T02:50:24.186Z,99.9
2022-08-03T02:52:21.693Z,99.9
2022-08-03T02:54:19.206Z,99.9
2022-08-03T02:56:16.806Z,99.9
2022-08-03T03:00:31.914Z,99.9
2022-08-03T03:02:17.896Z,99.9
2022-08-03T03:10:07.953Z,99.9
2022-08-03T03:12:05.614Z,99.9
2022-08-03T03:14:11.133Z,99.9
2022-08-03T03:16:08.733Z,99.9
2022-08-03T03:18:06.337Z,99.9
2022-08-03T03:20:03.905Z,99.9
2022-08-03T03:22:01.505Z,99.9
2022-08-03T03:23:59.105Z,99.9
2022-08-03T03:25:56.664Z,99.9
2022-08-03T03:28:02.231Z,99.9
2022-08-03T03:29:59.792Z,99.9
2022-08-03T03:31:57.413Z,99.9
2022-08-03T03:34:57.795Z,99.9
2022-08-03T03:36:55.390Z,99.9
2022-08-03T03:38:53.871Z,99.9
2022-08-03T03:40:58.535Z,99.9
2022-08-03T03:46:51.334Z,99.9
2022-08-03T03:48:48.926Z,99.9
2022-08-03T03:54:49.631Z,99.9
2022-08-03T03:56:47.465Z,99.9
2022-08-03T03:58:44.845Z,99.9
2022-08-03T04:00:42.510Z,99.9
2022-08-03T04:08:40.733Z,99.9
2022-08-03T04:10:38.346Z,99.9
2022-08-03T04:14:33.548Z,99.9
2022-08-03T04:16:31.145Z,99.9
2022-08-03T04:18:29.731Z,99.9
2022-08-03T04:20:26.283Z,99.9
2022-08-03T04:22:31.823Z,99.9
2022-08-03T04:24:29.430Z,99.9
2022-08-03T04:26:27.021Z,99.9
2022-08-03T04:30:47.792Z,99.9
2022-08-03T04:32:46.024Z,99.9
2022-08-03T04:34:50.924Z,99.9
2022-08-03T04:36:48.518Z,99.9
2022-08-03T04:38:46.112Z,99.9
2022-08-03T04:42:41.311Z,99.9
2022-08-03T04:44:39.782Z,99.9
2022-08-03T04:48:44.843Z,99.9
2022-08-03T04:52:39.639Z,99.9
2022-08-03T04:54:37.237Z,99.9
2022-08-03T04:56:34.828Z,99.9
2022-08-03T04:58:32.418Z,99.9
2022-08-03T05:00:30.030Z,99.9
2022-08-03T05:06:30.732Z,99.9
2022-08-03T05:08:28.491Z,99.9
2022-08-03T05:14:28.276Z,99.9
2022-08-03T05:16:26.668Z,99.9
2022-08-03T05:18:24.231Z,99.9
2022-08-03T05:20:21.828Z,99.9
2022-08-03T05:21:24.598Z,99.9
2022-08-03T05:23:22.178Z,99.9
2022-08-03T05:33:18.091Z,99.9
2022-08-03T05:36:01.622Z,99.9
2022-08-03T05:37:13.266Z,99.9
2022-08-03T05:39:10.859Z,99.9
2022-08-03T05:41:21.459Z,99.9
2022-08-03T05:43:13.946Z,99.9
2022-08-03T05:45:11.563Z,99.9
2022-08-03T05:49:06.780Z,99.9
2022-08-03T05:51:04.314Z,99.9
2022-08-03T05:53:01.880Z,99.9
2022-08-03T05:54:59.489Z,99.9
2022-08-03T05:57:04.995Z,99.9
2022-08-03T05:59:22.416Z,99.9
2022-08-03T06:01:00.185Z,99.9
2022-08-03T06:02:57.750Z,99.9
2022-08-03T06:04:55.372Z,99.9
2022-08-03T06:12:53.702Z,99.8
2022-08-03T06:15:53.996Z,99.7
2022-08-03T06:17:51.578Z,99.6
2022-08-03T06:19:49.180Z,99.5
2022-08-03T06:21:46.759Z,99.4
2022-08-03T06:25:49.830Z,99.3
2022-08-03T06:27:47.433Z,99.2
2022-08-03T06:29:45.020Z,99.1
2022-08-03T06:33:48.318Z,98.8
2022-08-03T06:35:37.754Z,98.7
2022-08-03T06:37:43.263Z,98.5
2022-08-03T06:41:44.558Z,98.2
2022-08-03T06:43:36.065Z,98.2
2022-08-03T06:45:33.565Z,98.1
2022-08-03T06:47:31.154Z,97.9
2022-08-03T06:49:28.793Z,97.8
2022-08-03T06:52:06.262Z,97.6
2022-08-03T06:53:31.808Z,97.5
2022-08-03T06:57:26.931Z,97.2
2022-08-03T07:00:06.060Z,97.1
2022-08-03T07:01:22.156Z,96.9
2022-08-03T07:03:19.649Z,96.7
2022-08-03T07:05:25.186Z,96.5
2022-08-03T07:07:22.778Z,96.4
2022-08-03T07:09:20.320Z,96.3
2022-08-03T07:16:15.734Z,95.9
2022-08-03T07:18:27.624Z,95.6
2022-08-03T07:20:18.797Z,95.5
2022-08-03T07:22:16.672Z,95.3
2022-08-03T07:24:13.890Z,95.2
2022-08-03T07:28:08.974Z,94.9
2022-08-03T07:30:06.525Z,94.6
2022-08-03T07:32:12.050Z,94.2
2022-08-03T07:34:09.578Z,94
2022-08-03T07:36:07.134Z,93.8
2022-08-03T07:38:04.685Z,93.5
2022-08-03T07:40:02.206Z,93.3
2022-08-03T07:41:59.728Z,93
2022-08-03T07:43:57.259Z,92.8
2022-08-03T07:46:02.784Z,92.3
2022-08-03T07:48:00.316Z,92.1
2022-08-03T07:51:55.385Z,91.8
2022-08-03T07:53:53.057Z,91.7
2022-08-03T07:55:50.415Z,91.5
2022-08-03T07:57:47.964Z,91.2
2022-08-03T07:59:58.677Z,90.7
2022-08-03T08:01:51.007Z,90.4
2022-08-03T08:03:53.495Z,90
2022-08-03T08:06:15.327Z,88.3
2022-08-03T08:14:13.454Z,86.8
2022-08-03T08:16:10.977Z,86.9
2022-08-03T08:20:06.023Z,86.8
2022-08-03T08:22:03.518Z,86.8
2022-08-03T08:24:01.034Z,86.5
2022-08-03T08:26:06.518Z,86.1
2022-08-03T08:28:31.677Z,85.7
2022-08-03T08:31:59.009Z,83.7
2022-08-03T08:34:04.723Z,83.2
2022-08-03T08:35:54.024Z,82.6
2022-08-03T08:39:56.981Z,81.1
2022-08-03T08:41:54.445Z,80.9
2022-08-03T08:45:49.432Z,80
2022-08-03T08:47:51.044Z,79.3
2022-08-03T08:49:58.377Z,78.4
2022-08-03T08:51:50.930Z,77
2022-08-03T08:53:47.310Z,76.4
2022-08-03T08:55:57.900Z,75.8
2022-08-03T08:57:43.396Z,75.6
2022-08-03T08:58:44.979Z,75.3
2022-08-03T09:02:39.912Z,74.8
2022-08-03T09:08:40.293Z,73
2022-08-03T09:10:37.765Z,72.1
2022-08-03T09:12:41.568Z,71.6
2022-08-03T09:14:32.647Z,71.2
2022-08-03T09:18:27.565Z,70.4
2022-08-03T09:24:40.603Z,69.1
2022-08-03T09:26:25.353Z,68.9
2022-08-03T09:34:23.092Z,65
2022-08-03T09:36:20.537Z,64.1
2022-08-03T09:40:15.401Z,63.2
2022-08-03T09:48:13.017Z,60.8
2022-08-03T09:50:10.789Z,60.4
2022-08-03T09:53:10.577Z,60
2022-08-03T09:55:07.989Z,59.9
2022-08-03T09:57:05.397Z,59.9
2022-08-03T09:59:02.848Z,60
2022-08-03T10:01:08.349Z,59.8
2022-08-03T10:03:05.680Z,59.7
2022-08-03T10:05:03.089Z,59.5
2022-08-03T10:07:00.463Z,59.2
2022-08-03T10:08:57.867Z,58.8
2022-08-03T10:10:55.266Z,58.6
2022-08-03T10:12:52.669Z,58.5
2022-08-03T10:14:58.058Z,58
2022-08-03T10:16:55.476Z,57.8
2022-08-03T10:18:52.863Z,57.5
2022-08-03T10:20:50.283Z,57.3
2022-08-03T10:22:47.691Z,57
2022-08-03T10:24:45.046Z,56.7
2022-08-03T10:26:49.808Z,56.6
2022-08-03T10:28:47.818Z,56.7
2022-08-03T10:30:46.775Z,56.6
2022-08-03T10:32:44.112Z,56.4
2022-08-03T10:36:38.859Z,56.2
2022-08-03T10:38:36.216Z,56
2022-08-03T10:40:47.975Z,55.6
2022-08-03T10:42:38.946Z,55
2022-08-03T10:44:36.324Z,54.6
2022-08-03T10:46:33.671Z,54.5
2022-08-03T10:47:36.368Z,54.3
2022-08-03T10:49:35.483Z,54.2
2022-08-03T10:53:28.432Z,52.8
2022-08-03T10:55:33.828Z,51.5
2022-08-03T11:01:25.900Z,51.2
2022-08-03T11:03:23.227Z,51.2
2022-08-03T11:05:20.575Z,51.2
2022-08-03T11:09:23.260Z,49.1
2022-08-03T11:11:20.593Z,48.5
2022-08-03T11:13:17.930Z,47.9
2022-08-03T11:15:15.247Z,47.7
2022-08-03T11:17:14.032Z,47.2
2022-08-03T11:19:09.887Z,46.5
2022-08-03T11:21:07.205Z,46.1
2022-08-03T11:23:12.521Z,45.6
2022-08-03T11:25:34.677Z,45.5
2022-08-03T11:27:07.208Z,45.2
2022-08-03T11:29:04.341Z,45.3
2022-08-03T11:32:58.847Z,44.8
2022-08-03T11:34:56.097Z,43.8
2022-08-03T11:37:01.375Z,43.1
2022-08-03T11:38:58.581Z,42.9
2022-08-03T11:40:55.805Z,42.7
2022-08-03T11:43:22.385Z,42.4
2022-08-03T11:53:16.320Z,41.5
2022-08-03T11:55:13.458Z,41.4
2022-08-03T11:57:10.603Z,41.4
2022-08-03T11:59:20.182Z,41.2
2022-08-03T12:01:04.861Z,41
2022-08-03T12:03:10.130Z,40.3
2022-08-03T12:05:07.153Z,40
2022-08-03T12:07:04.261Z,39.9
2022-08-03T12:09:01.344Z,39.6
2022-08-03T12:10:58.420Z,39.5
2022-08-03T12:12:55.502Z,39.3
2022-08-03T12:14:52.693Z,39.1
2022-08-03T12:16:57.701Z,38.6
2022-08-03T12:18:54.742Z,38.4
2022-08-03T12:20:51.810Z,38.1
2022-08-03T12:22:48.834Z,38.1
2022-08-03T12:24:47.077Z,37.9
2022-08-03T12:26:42.914Z,37.7
2022-08-03T12:28:44.976Z,37.7
2022-08-03T12:30:46.458Z,37.3
2022-08-03T12:32:42.082Z,36.9
2022-08-03T12:35:41.631Z,36.4
2022-08-03T12:37:38.631Z,36.4
2022-08-03T12:39:35.625Z,36.1
2022-08-03T12:41:34.226Z,36
2022-08-03T12:45:34.656Z,35.2
2022-08-03T12:47:31.629Z,34.8
2022-08-03T12:49:28.627Z,34.9
2022-08-03T12:51:25.525Z,34.8
2022-08-03T12:55:19.358Z,34.8
2022-08-03T12:59:21.295Z,33.9
2022-08-03T13:05:11.982Z,32.6
2022-08-03T13:07:12.715Z,32.3
2022-08-03T13:09:05.699Z,32.2
2022-08-03T13:11:10.721Z,32.2
2022-08-03T13:17:01.257Z,32.6
2022-08-03T13:18:58.147Z,32.6
2022-08-03T13:20:54.910Z,32.4
2022-08-03T13:22:51.739Z,31.9
2022-08-03T13:29:52.792Z,30.6
2022-08-03T13:31:50.535Z,30.6
2022-08-03T13:33:46.391Z,30.7
2022-08-03T13:35:43.201Z,30.6
2022-08-03T13:41:41.714Z,31
2022-08-03T13:43:38.581Z,31.1
2022-08-03T13:45:35.336Z,31.4
2022-08-03T13:47:32.150Z,31.6
2022-08-03T13:49:28.966Z,31.7
2022-08-03T13:51:33.904Z,31.8
2022-08-03T13:53:30.696Z,31.9
2022-08-03T13:58:04.432Z,31.9
2022-08-03T14:03:15.034Z,32
2022-08-03T14:05:19.630Z,32.3
2022-08-03T14:07:16.283Z,32.4
2022-08-03T14:09:13.053Z,32.4
2022-08-03T14:11:09.812Z,32.6
2022-08-03T14:13:06.645Z,32.7
2022-08-03T14:17:00.168Z,32.3
2022-08-03T14:19:05.210Z,32
2022-08-03T14:21:05.495Z,31.7
2022-08-03T14:22:58.515Z,31.5
2022-08-03T14:24:00.950Z,31.6
2022-08-03T14:25:57.734Z,31.7
2022-08-03T14:27:54.400Z,31.8
2022-08-03T14:32:12.052Z,32.8
2022-08-03T14:33:52.837Z,32.9
2022-08-03T14:35:49.597Z,33.1
2022-08-03T14:37:46.350Z,33.2
2022-08-03T14:40:00.462Z,33.2
2022-08-03T14:45:41.614Z,32.7
2022-08-03T14:50:36.346Z,32.3
2022-08-03T14:51:31.959Z,32
2022-08-03T14:53:28.732Z,31.9
2022-08-03T14:55:25.508Z,32
2022-08-03T14:57:22.337Z,32.4
2022-08-03T14:59:27.197Z,33.6
2022-08-03T15:02:04.628Z,34.1
2022-08-03T15:03:20.829Z,34.5
2022-08-03T15:05:17.641Z,34.9
2022-08-03T15:07:14.499Z,35.3
2022-08-03T15:09:23.445Z,35.6
2022-08-03T15:13:13.444Z,36.4
2022-08-03T15:15:10.200Z,36.5
2022-08-03T15:26:03.759Z,37.8
2022-08-03T15:31:13.833Z,38.1
2022-08-03T15:39:10.337Z,38.5
2022-08-03T15:41:08.769Z,38.6
2022-08-03T15:43:04.487Z,38.7
2022-08-03T15:45:01.596Z,38.8
2022-08-03T15:46:58.721Z,38.8
2022-08-03T15:50:53.021Z,39
2022-08-03T15:52:58.225Z,39.2
2022-08-03T15:56:52.557Z,39.4
2022-08-03T16:00:46.894Z,39.6
2022-08-03T16:04:41.249Z,39.6
2022-08-03T16:08:43.689Z,39.7
2022-08-03T16:10:42.455Z,39.8
2022-08-03T16:11:45.073Z,39.7
2022-08-03T16:14:12.930Z,39.7
2022-08-03T16:15:39.460Z,39.7
2022-08-03T16:19:42.059Z,40.1
2022-08-03T16:23:36.391Z,40.6
2022-08-03T16:25:33.614Z,40.7
2022-08-03T16:27:56.627Z,40.9
2022-08-03T16:29:28.076Z,40.9
2022-08-03T16:31:25.321Z,40.9
2022-08-03T16:33:30.588Z,40.8
2022-08-03T16:35:27.850Z,40.9
2022-08-03T16:37:37.687Z,40.9
2022-08-03T16:39:22.450Z,41
2022-08-03T16:41:19.570Z,41.1
2022-08-03T16:43:18.468Z,41.1
2022-08-03T16:45:14.061Z,41.2
2022-08-03T16:47:21.928Z,41
2022-08-03T16:49:54.092Z,40.9
2022-08-03T16:51:13.864Z,40.9
2022-08-03T16:55:08.360Z,40.9
2022-08-03T16:57:05.599Z,40.8
2022-08-03T16:59:02.922Z,40.9
2022-08-03T17:01:24.626Z,41
2022-08-03T17:03:19.083Z,41.1
2022-08-03T17:05:02.747Z,41.1
2022-08-03T17:06:05.346Z,41.4
2022-08-03T17:08:05.216Z,41.6
2022-08-03T17:11:57.165Z,42.1
2022-08-03T17:14:06.486Z,42.9
2022-08-03T17:16:01.812Z,43.2
2022-08-03T17:17:57.025Z,43.6
2022-08-03T17:19:55.342Z,43.9
2022-08-03T17:21:51.581Z,44.2
2022-08-03T17:31:49.605Z,45.5
2022-08-03T17:33:43.286Z,45.5
2022-08-03T17:35:40.607Z,45.6
2022-08-03T17:37:58.474Z,45.7
2022-08-03T17:39:57.773Z,45.7
2022-08-03T17:41:50.005Z,45.7
2022-08-03T17:44:14.443Z,45.8
2022-08-03T17:45:52.205Z,45.8
2022-08-03T17:47:42.055Z,45.8
2022-08-03T17:49:29.646Z,45.9
2022-08-03T17:51:26.945Z,46
2022-08-03T17:53:24.662Z,46.1
2022-08-03T17:57:27.188Z,46.4
2022-08-03T18:00:26.844Z,46.6
2022-08-03T18:02:30.518Z,46.7
2022-08-03T18:04:21.437Z,46.8
2022-08-03T18:06:27.945Z,46.9
2022-08-03T18:08:24.936Z,47.3
2022-08-03T18:14:16.913Z,47.6
2022-08-03T18:16:13.335Z,47.8
2022-08-03T18:22:13.323Z,48
2022-08-03T18:24:10.720Z,48
2022-08-03T18:26:12.278Z,48
2022-08-03T18:28:05.357Z,48.1
2022-08-03T18:30:02.750Z,48.2
2022-08-03T18:32:03.607Z,48.4
2022-08-03T18:34:16.387Z,48.6
2022-08-03T18:36:02.733Z,49
2022-08-03T18:38:01.065Z,49.2
2022-08-03T18:41:54.679Z,49.5
2022-08-03T18:44:07.092Z,49.7
2022-08-03T18:49:52.103Z,50.1
2022-08-03T18:54:02.952Z,50.3
2022-08-03T19:02:13.649Z,50.6
2022-08-03T19:08:05.653Z,50.9
2022-08-03T19:12:12.646Z,51.1
2022-08-03T19:13:57.745Z,51.3
2022-08-03T19:16:03.156Z,51.5
2022-08-03T19:19:57.936Z,51.7
2022-08-03T19:21:55.267Z,51.9
2022-08-03T19:23:52.797Z,52.2
2022-08-03T19:29:58.890Z,53.5
2022-08-03T19:35:51.678Z,53.6
2022-08-03T19:37:42.336Z,53.7
2022-08-03T19:41:42.114Z,53.8
2022-08-03T19:43:53.816Z,54.1
2022-08-03T19:46:05.199Z,54.3
2022-08-03T19:47:37.329Z,54.5
2022-08-03T19:48:40.055Z,54.6
2022-08-03T19:54:32.427Z,55.1
2022-08-03T19:58:35.066Z,55.5
2022-08-03T20:00:36.943Z,55.8
2022-08-03T20:04:27.298Z,56.1
2022-08-03T20:06:24.721Z,56.3
2022-08-03T20:08:22.146Z,56.5
2022-08-03T20:12:27.555Z,57
2022-08-03T20:14:26.538Z,57.1
2022-08-03T20:16:19.799Z,57.2
2022-08-03T20:18:17.262Z,57.2
2022-08-03T20:20:14.634Z,57.3
2022-08-03T20:22:14.300Z,57.3
2022-08-03T20:24:24.681Z,57.6
2022-08-03T20:26:14.966Z,57.7
2022-08-03T20:28:13.791Z,57.9
2022-08-03T20:30:09.757Z,58.1
2022-08-03T20:34:04.617Z,58.5
2022-08-03T20:36:02.072Z,58.7
2022-08-03T20:38:07.483Z,59.3
2022-08-03T20:40:04.971Z,59.4
2022-08-03T20:42:02.374Z,59.6
2022-08-03T20:43:05.122Z,59.8
2022-08-03T20:45:05.245Z,60
2022-08-03T20:47:00.889Z,60.3
2022-08-03T20:48:58.888Z,60.4
2022-08-03T20:53:02.714Z,61.1
2022-08-03T20:56:55.159Z,61.6
2022-08-03T20:58:52.621Z,61.7
2022-08-03T21:02:47.524Z,62
2022-08-03T21:04:52.951Z,62.1
2022-08-03T21:06:53.264Z,62.2
2022-08-03T21:08:48.117Z,62.2
2022-08-03T21:10:45.326Z,62.4
2022-08-03T21:12:42.785Z,62.6
2022-08-03T21:12:56.082Z,46.5
2022-08-03T21:14:40.220Z,62.9
2022-08-03T21:16:37.727Z,63
2022-08-03T21:18:43.179Z,63.6
2022-08-03T21:22:38.091Z,63.9
2022-08-03T21:24:35.554Z,64
2022-08-03T21:26:33.032Z,64.1
2022-08-03T21:30:27.960Z,64.3
2022-08-03T21:32:33.574Z,64.6
2022-08-03T21:34:30.861Z,64.7
2022-08-03T21:36:28.332Z,64.9
2022-08-03T21:41:25.964Z,65.3
2022-08-03T21:43:23.439Z,65.4
2022-08-03T21:45:28.875Z,65.7
2022-08-03T21:47:26.348Z,65.8
2022-08-03T21:49:52.010Z,65.9
2022-08-03T21:51:22.868Z,66
2022-08-03T21:57:15.254Z,66
2022-08-03T22:01:18.235Z,66.5
2022-08-03T22:03:17.824Z,66.8
2022-08-03T22:05:16.252Z,66.9
2022-08-03T22:07:10.639Z,67
2022-08-03T22:09:08.159Z,67.1
2022-08-03T22:11:05.643Z,67
2022-08-03T22:17:06.219Z,67
2022-08-03T22:19:03.555Z,67.1
2022-08-03T22:21:01.036Z,67.2
2022-08-03T22:22:58.508Z,67.3
2022-08-03T22:24:56.015Z,67.3
2022-08-03T22:27:01.513Z,67.5
2022-08-03T22:28:59.001Z,67.5
2022-08-03T22:30:56.457Z,67.6
2022-08-03T22:33:19.731Z,67.6
2022-08-03T22:35:17.268Z,67.8
2022-08-03T22:37:14.791Z,67.9
2022-08-03T22:39:25.639Z,68.1
2022-08-03T22:43:15.251Z,68.4
2022-08-03T22:46:06.818Z,68.6
2022-08-03T22:47:10.236Z,68.6
2022-08-03T22:49:07.735Z,68.8
2022-08-03T22:51:05.217Z,68.9
2022-08-03T22:53:10.713Z,69.2
2022-08-03T22:55:08.210Z,69.2
2022-08-03T22:57:05.698Z,69.4
2022-08-03T23:02:58.333Z,69.7
2022-08-03T23:04:55.679Z,69.7
2022-08-03T23:07:01.315Z,69.9
2022-08-03T23:08:58.662Z,69.9
2022-08-03T23:10:56.168Z,69.9
2022-08-03T23:12:53.641Z,69.8
2022-08-03T23:14:51.146Z,69.9
2022-08-03T23:16:48.647Z,70
2022-08-03T23:18:46.152Z,70.1
2022-08-03T23:20:51.658Z,70.4
2022-08-03T23:22:49.157Z,70.5
2022-08-03T23:24:46.624Z,70.7
2022-08-03T23:25:49.371Z,70.8
2022-08-03T23:31:43.121Z,71.3
2022-08-03T23:33:47.360Z,71.6
2022-08-03T23:36:22.700Z,71.7
2022-08-03T23:38:04.784Z,71.8
2022-08-03T23:43:44.992Z,72.1
2022-08-03T23:45:32.434Z,72.2
2022-08-03T23:49:35.420Z,72.1
2022-08-03T23:51:32.927Z,72
2022-08-03T23:53:30.439Z,71.9
2022-08-03T23:55:27.960Z,71.7
2022-08-03T23:57:25.467Z,71.6
2022-08-03T23:59:22.987Z,71.7
